Time;durP1;ratioP1;P1;durP2;ratioP2;P2;SDS_P1;SDS_P2;PMS_P1;PMS_P2;Temp;Humidity;BMP_temperature;BMP_pressure;BME280_temperature;BME280_humidity;BME280_pressure;Samples;Min_cycle;Max_cycle;Signal;HPM_P1;HPM_P2
2023/10/12 05:06:26;;;;;;;;;25.75;22.75;;;;;;;;6114881;39;10000606;-60
2023/10/12 10:24:43;;;;;;;;;30.33;27.67;;;;;;;;6309854;39;10000490;-61
2023/10/12 10:30:52;;;;;;;;;15.67;15.00;;;;;;;;6490584;39;9034;-62
2023/10/12 10:36:57;;;;;;;;;17.00;14.33;;;;;;;;6490990;31;8978;-60
2023/10/12 10:43:07;;;;;;;;;25.67;25.00;;;;;;;;6488688;46;8929;-63
2023/10/12 10:49:16;;;;;;;;;10.00;10.00;;;;;;;;6488622;31;8939;-62
2023/10/12 10:55:25;;;;;;;;;33.67;29.00;;;;;;;;6489796;39;8913;-60
2023/10/12 11:01:28;;;;;;;;;16.00;14.50;;;;;;;;6488361;31;9012;-60
2023/10/12 11:07:32;;;;;;;;;16.75;15.00;;;;;;;;6487764;39;9613;-61
2023/10/12 11:13:40;;;;;;;;;10.50;10.50;;;;;;;;6488200;39;8929;-61
2023/10/12 11:19:44;;;;;;;;;17.00;16.33;;;;;;;;6489268;47;9000;-62
2023/10/12 11:25:46;;;;;;;;;15.67;15.67;;;;;;;;6489353;39;8927;-59
2023/10/12 11:32:11;;;;;;;;;21.50;20.00;;;;;;;;6490558;39;8931;-60
2023/10/12 11:38:19;;;;;;;;;12.00;12.00;;;;;;;;6491389;39;9090;-61
2023/10/12 11:44:36;;;;;;;;;21.33;20.00;;;;;;;;6488257;47;8927;-61
2023/10/12 11:50:45;;;;;;;;;12.25;12.00;;;;;;;;6489657;39;8894;-61
2023/10/12 11:56:53;;;;;;;;;13.00;13.00;;;;;;;;6487937;39;8906;-59
2023/10/12 12:02:59;;;;;;;;;14.00;11.50;;;;;;;;6486660;31;9052;-60
2023/10/12 12:09:07;;;;;;;;;23.67;21.00;;;;;;;;6489736;31;8965;-60
2023/10/12 12:15:16;;;;;;;;;12.25;12.00;;;;;;;;6489124;46;8923;-60
2023/10/12 12:21:33;;;;;;;;;17.00;16.75;;;;;;;;6491336;39;8941;-61
2023/10/12 12:27:37;;;;;;;;;9.00;9.00;;;;;;;;6489915;39;9146;-60
2023/10/12 12:33:46;;;;;;;;;12.75;12.50;;;;;;;;6491811;39;8912;-60
2023/10/12 12:40:31;;;;;;;;;15.00;15.00;;;;;;;;6489372;46;9071;-61
2023/10/12 12:46:32;;;;;;;;;17.67;17.67;;;;;;;;6489256;31;8978;-61
2023/10/12 12:52:41;;;;;;;;;20.00;18.25;;;;;;;;6488339;39;8943;-61
2023/10/12 12:58:49;;;;;;;;;14.00;12.75;;;;;;;;6487819;31;9668;-60
2023/10/12 13:04:53;;;;;;;;;12.25;12.25;;;;;;;;6491614;39;8872;-60
2023/10/12 13:10:58;;;;;;;;;21.67;20.00;;;;;;;;6487452;31;141712;-61
2023/10/12 13:17:04;;;;;;;;;13.50;13.50;;;;;;;;6486538;39;9125;-61
2023/10/12 13:23:21;;;;;;;;;13.00;11.00;;;;;;;;6487984;39;9172;-61
2023/10/12 13:29:42;;;;;;;;;12.25;11.25;;;;;;;;6488965;39;8948;-60
2023/10/12 13:35:46;;;;;;;;;11.75;11.75;;;;;;;;6478902;31;9035;-61
2023/10/12 13:41:48;;;;;;;;;11.25;10.50;;;;;;;;6479203;39;9688;-61
2023/10/12 13:47:55;;;;;;;;;12.00;11.75;;;;;;;;6484711;31;8880;-60
2023/10/12 13:54:00;;;;;;;;;14.33;14.33;;;;;;;;6485768;31;8987;-60
2023/10/12 14:00:04;;;;;;;;;26.33;23.33;;;;;;;;6488711;39;9040;-62
2023/10/12 14:06:12;;;;;;;;;23.33;22.67;;;;;;;;6488954;46;8963;-60
2023/10/12 14:12:16;;;;;;;;;14.00;14.00;;;;;;;;6489223;39;9043;-61
2023/10/12 14:18:21;;;;;;;;;12.50;12.25;;;;;;;;6488049;39;8911;-60
2023/10/12 14:24:25;;;;;;;;;17.00;15.25;;;;;;;;6488487;46;8985;-60
2023/10/12 14:30:29;;;;;;;;;13.67;12.00;;;;;;;;6488535;39;8928;-60
2023/10/12 14:36:31;;;;;;;;;16.33;14.33;;;;;;;;6489327;39;8945;-60
2023/10/12 14:42:39;;;;;;;;;20.00;17.33;;;;;;;;6488306;39;8934;-60
2023/10/12 14:48:43;;;;;;;;;11.67;11.67;;;;;;;;6488298;39;8934;-60
2023/10/12 14:54:48;;;;;;;;;13.00;12.25;;;;;;;;6488284;46;9044;-60
2023/10/12 15:00:51;;;;;;;;;20.33;18.00;;;;;;;;6488493;39;9721;-61
2023/10/12 15:06:56;;;;;;;;;25.33;24.33;;;;;;;;6488809;39;8928;-59
2023/10/12 15:13:00;;;;;;;;;13.33;13.33;;;;;;;;6488832;47;9014;-61
2023/10/12 15:19:08;;;;;;;;;17.67;13.00;;;;;;;;6488928;39;9722;-60
2023/10/12 15:25:13;;;;;;;;;17.33;16.00;;;;;;;;6489645;39;8922;-61
2023/10/12 15:31:21;;;;;;;;;20.67;19.67;;;;;;;;6488188;39;8941;-60
2023/10/12 15:37:24;;;;;;;;;21.00;19.00;;;;;;;;6488916;39;9500;-60
2023/10/12 15:43:27;;;;;;;;;20.00;18.33;;;;;;;;6489371;39;9634;-60
2023/10/12 15:49:29;;;;;;;;;21.33;18.00;;;;;;;;6490459;31;9085;-60
2023/10/12 15:55:34;;;;;;;;;26.33;23.67;;;;;;;;6490420;39;9611;-61
2023/10/12 16:01:39;;;;;;;;;27.67;27.67;;;;;;;;6490654;39;8960;-59
2023/10/12 16:07:43;;;;;;;;;25.33;22.33;;;;;;;;6489223;39;9024;-57
2023/10/12 16:13:48;;;;;;;;;21.00;21.00;;;;;;;;6489402;46;8870;-56
2023/10/12 16:19:51;;;;;;;;;25.00;23.00;;;;;;;;6489305;39;9645;-57
2023/10/12 16:25:53;;;;;;;;;26.67;25.67;;;;;;;;6490030;39;8877;-55
2023/10/12 16:31:58;;;;;;;;;38.67;36.33;;;;;;;;6488748;46;8923;-57
2023/10/12 16:38:01;;;;;;;;;32.67;30.67;;;;;;;;6490846;39;8891;-57
2023/10/12 16:44:03;;;;;;;;;30.00;27.00;;;;;;;;6490123;39;8914;-55
2023/10/12 16:50:06;;;;;;;;;33.00;31.00;;;;;;;;6490227;31;8902;-56
2023/10/12 16:56:10;;;;;;;;;35.33;32.67;;;;;;;;6490862;31;8979;-57
2023/10/12 17:02:16;;;;;;;;;29.00;27.67;;;;;;;;6489694;31;8916;-58
2023/10/12 17:08:21;;;;;;;;;28.00;28.00;;;;;;;;6489995;39;8848;-58
2023/10/12 17:14:24;;;;;;;;;34.33;29.67;;;;;;;;6490841;39;8890;-57
2023/10/12 17:20:27;;;;;;;;;33.67;32.67;;;;;;;;6323042;36;10001706;-56
2023/10/12 17:26:31;;;;;;;;;37.67;29.00;;;;;;;;6489618;39;8870;-57
2023/10/12 17:32:35;;;;;;;;;34.33;32.67;;;;;;;;6489271;39;8922;-57
2023/10/12 17:38:42;;;;;;;;;28.33;25.67;;;;;;;;6487986;31;8879;-55
2023/10/12 17:44:44;;;;;;;;;27.67;26.33;;;;;;;;6489906;39;8859;-54
2023/10/12 17:50:47;;;;;;;;;30.00;26.33;;;;;;;;6487840;46;8950;-53
2023/10/12 17:56:50;;;;;;;;;27.33;25.00;;;;;;;;6488441;46;8937;-56
2023/10/12 18:02:53;;;;;;;;;29.33;29.33;;;;;;;;6488880;31;8856;-56
2023/10/12 18:08:58;;;;;;;;;34.33;34.00;;;;;;;;6489003;39;9892;-58
2023/10/12 18:15:01;;;;;;;;;35.00;33.67;;;;;;;;6487838;46;8930;-58
2023/10/12 18:21:04;;;;;;;;;31.67;30.33;;;;;;;;6488036;39;8922;-54
2023/10/12 18:27:10;;;;;;;;;38.00;31.67;;;;;;;;6488269;31;8954;-55
2023/10/12 18:33:12;;;;;;;;;35.67;29.33;;;;;;;;6488078;39;8858;-56
2023/10/12 18:39:15;;;;;;;;;35.67;34.33;;;;;;;;6488056;39;8962;-55
2023/10/12 18:45:19;;;;;;;;;33.67;29.00;;;;;;;;6488826;39;8905;-55
2023/10/12 18:51:21;;;;;;;;;33.67;25.67;;;;;;;;6489086;39;8868;-56
2023/10/12 18:57:24;;;;;;;;;29.00;24.33;;;;;;;;6488138;39;9001;-56
2023/10/12 19:03:28;;;;;;;;;31.33;28.67;;;;;;;;6488075;39;9662;-58
2023/10/12 19:09:30;;;;;;;;;29.33;27.00;;;;;;;;6488648;31;8918;-57
2023/10/12 19:15:33;;;;;;;;;30.67;27.33;;;;;;;;6486399;39;8883;-57
2023/10/12 19:21:37;;;;;;;;;26.33;26.00;;;;;;;;6488311;39;9497;-57
2023/10/12 19:27:41;;;;;;;;;25.67;24.33;;;;;;;;6489396;39;8864;-55
2023/10/12 19:33:47;;;;;;;;;32.00;28.33;;;;;;;;6489636;46;8870;-56
2023/10/12 19:39:49;;;;;;;;;31.00;24.33;;;;;;;;6488923;39;9590;-55
2023/10/12 19:45:52;;;;;;;;;29.67;28.00;;;;;;;;6490172;39;8879;-55
2023/10/12 19:51:55;;;;;;;;;28.33;25.00;;;;;;;;6489288;46;8943;-55
2023/10/12 19:57:59;;;;;;;;;26.67;24.00;;;;;;;;6512206;36;8943;-55
2023/10/12 20:04:03;;;;;;;;;26.67;24.67;;;;;;;;6488975;31;9089;-55
2023/10/12 20:10:11;;;;;;;;;26.00;22.67;;;;;;;;6489211;46;8928;-54
2023/10/12 20:16:19;;;;;;;;;27.33;25.00;;;;;;;;6489996;39;8884;-56
2023/10/12 20:22:23;;;;;;;;;31.33;27.67;;;;;;;;6489841;46;9010;-57
2023/10/12 20:28:27;;;;;;;;;28.00;27.00;;;;;;;;6488933;39;8864;-56
2023/10/12 20:34:29;;;;;;;;;28.00;25.67;;;;;;;;6488406;31;8982;-56
2023/10/12 20:40:38;;;;;;;;;29.33;24.33;;;;;;;;6489458;39;8872;-53
2023/10/12 20:46:41;;;;;;;;;25.67;25.67;;;;;;;;6488188;46;8906;-54
2023/10/12 20:52:44;;;;;;;;;31.67;26.67;;;;;;;;6488752;39;8883;-55
2023/10/12 20:58:46;;;;;;;;;26.00;23.00;;;;;;;;6488154;39;8939;-55
2023/10/12 21:04:49;;;;;;;;;24.33;23.00;;;;;;;;6488716;46;8868;-54
2023/10/12 21:10:58;;;;;;;;;25.00;22.67;;;;;;;;6488593;39;9633;-56
2023/10/12 21:17:04;;;;;;;;;20.33;20.00;;;;;;;;6488914;39;8863;-54
2023/10/12 21:23:06;;;;;;;;;23.00;22.33;;;;;;;;6490001;31;8939;-53
2023/10/12 21:29:13;;;;;;;;;24.00;22.33;;;;;;;;6487434;39;8888;-52
2023/10/12 21:35:21;;;;;;;;;22.50;20.00;;;;;;;;6488711;46;8957;-53
2023/10/12 21:41:32;;;;;;;;;17.67;17.67;;;;;;;;6488059;46;8914;-53
2023/10/12 21:47:36;;;;;;;;;18.67;18.67;;;;;;;;6488210;31;8875;-54
2023/10/12 21:53:39;;;;;;;;;27.00;19.67;;;;;;;;6488543;39;8982;-54
2023/10/12 21:59:41;;;;;;;;;23.33;21.67;;;;;;;;6488649;39;9444;-53
2023/10/12 22:05:45;;;;;;;;;19.67;18.00;;;;;;;;6488660;31;8875;-54
2023/10/12 22:11:49;;;;;;;;;23.00;20.67;;;;;;;;6487210;39;8916;-55
2023/10/12 22:18:01;;;;;;;;;19.67;17.33;;;;;;;;6487750;39;8907;-53
2023/10/12 22:24:05;;;;;;;;;18.00;17.33;;;;;;;;6487596;31;8942;-56
2023/10/12 22:30:08;;;;;;;;;20.00;19.33;;;;;;;;6487698;46;8971;-55
2023/10/12 22:36:10;;;;;;;;;19.33;16.67;;;;;;;;6487875;46;8872;-55
2023/10/12 22:42:14;;;;;;;;;20.00;19.67;;;;;;;;6488359;39;8974;-55
2023/10/12 22:48:18;;;;;;;;;22.33;20.00;;;;;;;;6486170;39;8868;-54
2023/10/12 22:54:20;;;;;;;;;18.33;17.33;;;;;;;;6485844;39;9035;-56
2023/10/12 23:00:26;;;;;;;;;21.33;20.33;;;;;;;;6487239;46;8883;-56
2023/10/12 23:06:28;;;;;;;;;17.67;17.67;;;;;;;;6486824;31;9010;-57
2023/10/12 23:12:41;;;;;;;;;20.00;20.00;;;;;;;;6486007;39;8946;-54
2023/10/12 23:18:44;;;;;;;;;13.67;12.67;;;;;;;;6487933;39;9602;-51
2023/10/12 23:24:46;;;;;;;;;22.33;21.00;;;;;;;;6486463;47;8966;-52
2023/10/12 23:30:53;;;;;;;;;18.33;18.33;;;;;;;;6486843;47;8883;-54
2023/10/12 23:36:59;;;;;;;;;22.00;20.67;;;;;;;;6487245;47;8914;-55
2023/10/12 23:43:03;;;;;;;;;17.33;17.33;;;;;;;;6487141;39;8886;-56
2023/10/12 23:55:11;;;;;;;;;20.00;19.00;;;;;;;;6486980;31;9086;-56
